Terminal Aerodrome Forecast
Issued by NWS Hastings, NE

Home | Current Version | Previous Version | Text Only | Print | Product List | Glossary On
Versions: 1 2 3 4 5 6 7 8 9 10 11 12 13 14 15
000
FTUS45 KGID 220716 AAA
TAFEAR
TAF AMD
KEAR 220716Z 2207/2306 VRB06KT P6SM OVC045
      TEMPO 2207/2210 5SM BR OVC025
     FM221400 VRB06KT P6SM SCT090=

USA.gov is the U.S. government's official web portal to all federal, state and local government web resources and services.